sensor_id;sensor_type;location;lat;lon;timestamp;pressure;altitude;pressure_sealevel;temperature;humidity
12624;BME280;6377;42.836;23.998;2023-04-02T08:39:08;94814.31;;;15.80;50.62
12624;BME280;6377;42.836;23.998;2023-04-02T08:41:42;94854.56;;;15.90;49.78
12624;BME280;6377;42.836;23.998;2023-04-02T08:44:20;94844.00;;;16.06;51.42
12624;BME280;6377;42.836;23.998;2023-04-02T08:46:50;94837.63;;;16.19;49.37
12624;BME280;6377;42.836;23.998;2023-04-02T08:49:26;94842.41;;;16.17;51.73
12624;BME280;6377;42.836;23.998;2023-04-02T08:51:54;94847.59;;;16.23;51.43
12624;BME280;6377;42.836;23.998;2023-04-02T08:54:26;94767.59;;;15.65;42.65
12624;BME280;6377;42.836;23.998;2023-04-02T08:56:58;94849.69;;;16.33;45.13
12624;BME280;6377;42.836;23.998;2023-04-02T08:59:31;94845.50;;;16.37;45.90
12624;BME280;6377;42.836;23.998;2023-04-02T09:02:05;94848.06;;;16.09;46.07
12624;BME280;6377;42.836;23.998;2023-04-02T09:04:41;94725.47;;;15.09;42.77
12624;BME280;6377;42.836;23.998;2023-04-02T09:07:11;94854.47;;;16.19;44.60
12624;BME280;6377;42.836;23.998;2023-04-02T09:09:40;94749.25;;;15.34;44.09
12624;BME280;6377;42.836;23.998;2023-04-02T09:12:15;94851.44;;;16.04;45.71
12624;BME280;6377;42.836;23.998;2023-04-02T09:14:45;94650.78;;;14.03;45.19
12624;BME280;6377;42.836;23.998;2023-04-02T09:17:17;94856.28;;;15.01;46.90
12624;BME280;6377;42.836;23.998;2023-04-02T09:19:52;94850.88;;;15.08;47.32
12624;BME280;6377;42.836;23.998;2023-04-02T09:22:22;94737.78;;;14.51;47.07
12624;BME280;6377;42.836;23.998;2023-04-02T09:24:55;94856.28;;;15.31;45.46
12624;BME280;6377;42.836;23.998;2023-04-02T09:27:25;94844.91;;;15.36;45.60
12624;BME280;6377;42.836;23.998;2023-04-02T09:29:54;94842.09;;;15.19;46.18
12624;BME280;6377;42.836;23.998;2023-04-02T09:32:47;94749.97;;;14.58;45.28
12624;BME280;6377;42.836;23.998;2023-04-02T09:35:17;94842.03;;;15.37;48.02
12624;BME280;6377;42.836;23.998;2023-04-02T09:37:44;94844.09;;;15.35;44.11
12624;BME280;6377;42.836;23.998;2023-04-02T09:40:21;94848.78;;;15.10;44.35
12624;BME280;6377;42.836;23.998;2023-04-02T09:43:05;94842.16;;;15.42;46.61
12624;BME280;6377;42.836;23.998;2023-04-02T09:45:38;94839.03;;;15.87;45.70
12624;BME280;6377;42.836;23.998;2023-04-02T09:48:24;94791.94;;;15.69;46.14
12624;BME280;6377;42.836;23.998;2023-04-02T09:51:03;94835.78;;;16.54;45.75
12624;BME280;6377;42.836;23.998;2023-04-02T09:53:33;94827.28;;;16.57;42.06
12624;BME280;6377;42.836;23.998;2023-04-02T09:56:10;94828.75;;;16.53;41.96
12624;BME280;6377;42.836;23.998;2023-04-02T09:58:38;94834.03;;;16.88;45.53
12624;BME280;6377;42.836;23.998;2023-04-02T10:01:23;94839.63;;;17.15;42.50
12624;BME280;6377;42.836;23.998;2023-04-02T10:03:52;94840.88;;;17.24;41.49
12624;BME280;6377;42.836;23.998;2023-04-02T10:06:19;94752.53;;;16.57;42.79
12624;BME280;6377;42.836;23.998;2023-04-02T10:08:46;94834.19;;;16.82;43.45
12624;BME280;6377;42.836;23.998;2023-04-02T10:11:18;94832.38;;;16.59;44.47
12624;BME280;6377;42.836;23.998;2023-04-02T10:13:51;94754.06;;;15.79;45.28
12624;BME280;6377;42.836;23.998;2023-04-02T10:16:23;94858.03;;;16.48;45.55
12624;BME280;6377;42.836;23.998;2023-04-02T10:18:58;94828.09;;;16.98;48.36
12624;BME280;6377;42.836;23.998;2023-04-02T10:21:28;94823.16;;;17.63;47.96
12624;BME280;6377;42.836;23.998;2023-04-02T10:23:57;94731.34;;;17.41;47.97
12624;BME280;6377;42.836;23.998;2023-04-02T10:26:48;94831.09;;;18.08;45.79
12624;BME280;6377;42.836;23.998;2023-04-02T10:29:44;94822.41;;;18.01;44.34
12624;BME280;6377;42.836;23.998;2023-04-02T10:32:18;94815.34;;;17.61;45.31
12624;BME280;6377;42.836;23.998;2023-04-02T10:34:52;94830.34;;;16.89;43.81
12624;BME280;6377;42.836;23.998;2023-04-02T10:40:26;94826.69;;;16.67;45.68
12624;BME280;6377;42.836;23.998;2023-04-02T10:43:10;94805.03;;;16.40;45.15
12624;BME280;6377;42.836;23.998;2023-04-02T10:45:45;94826.81;;;16.49;45.92
12624;BME280;6377;42.836;23.998;2023-04-02T10:48:20;94742.22;;;15.75;47.95
12624;BME280;6377;42.836;23.998;2023-04-02T10:50:57;94810.13;;;16.30;46.48
12624;BME280;6377;42.836;23.998;2023-04-02T10:53:31;94710.69;;;15.83;47.05
12624;BME280;6377;42.836;23.998;2023-04-02T10:56:06;94813.84;;;16.41;46.57
12624;BME280;6377;42.836;23.998;2023-04-02T10:58:39;94712.97;;;16.03;45.72
12624;BME280;6377;42.836;23.998;2023-04-02T11:01:14;94741.00;;;16.68;45.08
12624;BME280;6377;42.836;23.998;2023-04-02T11:03:45;94812.28;;;17.24;44.84
12624;BME280;6377;42.836;23.998;2023-04-02T11:06:20;94805.72;;;17.15;43.45
12624;BME280;6377;42.836;23.998;2023-04-02T11:08:50;94812.72;;;17.33;43.20
12624;BME280;6377;42.836;23.998;2023-04-02T11:11:21;94791.19;;;17.23;42.23
12624;BME280;6377;42.836;23.998;2023-04-02T11:13:56;94808.34;;;17.72;41.32
12624;BME280;6377;42.836;23.998;2023-04-02T11:16:24;94823.47;;;16.93;43.63
12624;BME280;6377;42.836;23.998;2023-04-02T11:19:22;94795.78;;;16.71;44.71
12624;BME280;6377;42.836;23.998;2023-04-02T11:21:51;94751.72;;;16.85;46.04
12624;BME280;6377;42.836;23.998;2023-04-02T11:24:29;94799.00;;;17.91;43.88
12624;BME280;6377;42.836;23.998;2023-04-02T11:27:04;94658.09;;;16.92;41.60
12624;BME280;6377;42.836;23.998;2023-04-02T11:29:35;94708.38;;;16.95;41.54
12624;BME280;6377;42.836;23.998;2023-04-02T11:32:23;94796.75;;;18.21;40.51
12624;BME280;6377;42.836;23.998;2023-04-02T11:35:23;94807.13;;;17.63;38.95
12624;BME280;6377;42.836;23.998;2023-04-02T11:37:52;94795.03;;;17.32;41.07
12624;BME280;6377;42.836;23.998;2023-04-02T11:40:41;94793.78;;;17.51;40.17
12624;BME280;6377;42.836;23.998;2023-04-02T11:43:47;94800.72;;;17.80;38.32
12624;BME280;6377;42.836;23.998;2023-04-02T11:49:36;94794.63;;;17.85;38.16
12624;BME280;6377;42.836;23.998;2023-04-02T11:52:21;94785.63;;;18.08;37.66
12624;BME280;6377;42.836;23.998;2023-04-02T11:55:06;94768.56;;;18.14;34.83
12624;BME280;6377;42.836;23.998;2023-04-02T11:57:54;94660.84;;;17.63;34.29
12624;BME280;6377;42.836;23.998;2023-04-02T12:00:32;94664.31;;;17.80;32.98
12624;BME280;6377;42.836;23.998;2023-04-02T12:03:28;94772.66;;;19.35;32.58
12624;BME280;6377;42.836;23.998;2023-04-02T12:06:08;94618.84;;;18.29;34.10
12624;BME280;6377;42.836;23.998;2023-04-02T12:08:47;94766.72;;;19.28;35.33
12624;BME280;6377;42.836;23.998;2023-04-02T12:11:30;94641.63;;;18.05;35.71
12624;BME280;6377;42.836;23.998;2023-04-02T12:13:58;94700.72;;;18.03;37.40
12624;BME280;6377;42.836;23.998;2023-04-02T12:16:27;94766.09;;;17.90;38.32
12624;BME280;6377;42.836;23.998;2023-04-02T12:18:59;94774.53;;;17.66;39.47
12624;BME280;6377;42.836;23.998;2023-04-02T12:21:28;94760.84;;;17.17;39.14
12624;BME280;6377;42.836;23.998;2023-04-02T12:23:57;94768.81;;;17.29;39.07
12624;BME280;6377;42.836;23.998;2023-04-02T12:26:28;94783.13;;;17.68;39.57
12624;BME280;6377;42.836;23.998;2023-04-02T12:29:14;94778.47;;;17.47;37.11
12624;BME280;6377;42.836;23.998;2023-04-02T12:31:42;94741.06;;;16.57;38.77
12624;BME280;6377;42.836;23.998;2023-04-02T12:34:13;94780.84;;;16.70;39.08
12624;BME280;6377;42.836;23.998;2023-04-02T12:36:55;94779.59;;;16.61;40.12
12624;BME280;6377;42.836;23.998;2023-04-02T12:39:24;94754.81;;;16.25;40.71
12624;BME280;6377;42.836;23.998;2023-04-02T12:41:51;94763.13;;;16.41;40.12
12624;BME280;6377;42.836;23.998;2023-04-02T12:44:22;94767.91;;;16.27;41.79
12624;BME280;6377;42.836;23.998;2023-04-02T12:46:51;94765.06;;;15.94;42.12
12624;BME280;6377;42.836;23.998;2023-04-02T12:49:24;94770.38;;;16.05;43.29
12624;BME280;6377;42.836;23.998;2023-04-02T12:51:54;94785.91;;;16.20;42.24
12624;BME280;6377;42.836;23.998;2023-04-02T12:54:22;94769.72;;;16.38;43.15
12624;BME280;6377;42.836;23.998;2023-04-02T12:56:50;94662.66;;;15.95;42.26
12624;BME280;6377;42.836;23.998;2023-04-02T12:59:27;94801.13;;;16.71;42.71
12624;BME280;6377;42.836;23.998;2023-04-02T13:01:56;94772.28;;;16.56;42.25
12624;BME280;6377;42.836;23.998;2023-04-02T13:04:24;94781.94;;;16.34;41.26
12624;BME280;6377;42.836;23.998;2023-04-02T13:06:54;94795.34;;;16.62;40.33
12624;BME280;6377;42.836;23.998;2023-04-02T13:09:28;94742.78;;;16.51;42.00
12624;BME280;6377;42.836;23.998;2023-04-02T13:11:56;94754.78;;;16.37;40.47
12624;BME280;6377;42.836;23.998;2023-04-02T13:14:24;94714.72;;;15.97;40.88
12624;BME280;6377;42.836;23.998;2023-04-02T13:16:53;94756.06;;;16.35;40.61
12624;BME280;6377;42.836;23.998;2023-04-02T13:19:25;94743.84;;;16.39;41.17
12624;BME280;6377;42.836;23.998;2023-04-02T13:21:55;94707.91;;;16.30;41.16
12624;BME280;6377;42.836;23.998;2023-04-02T13:24:23;94756.91;;;16.75;39.78
12624;BME280;6377;42.836;23.998;2023-04-02T13:26:54;94679.47;;;16.35;38.85
12624;BME280;6377;42.836;23.998;2023-04-02T13:29:26;94753.59;;;16.85;38.75
12624;BME280;6377;42.836;23.998;2023-04-02T13:31:56;94750.13;;;16.84;38.41
12624;BME280;6377;42.836;23.998;2023-04-02T13:34:23;94722.84;;;16.42;39.07
12624;BME280;6377;42.836;23.998;2023-04-02T13:36:51;94736.97;;;16.66;38.15
12624;BME280;6377;42.836;23.998;2023-04-02T13:39:19;94721.38;;;16.74;38.89
12624;BME280;6377;42.836;23.998;2023-04-02T13:41:48;94712.94;;;16.66;38.49
12624;BME280;6377;42.836;23.998;2023-04-02T13:44:23;94751.19;;;17.00;38.92
12624;BME280;6377;42.836;23.998;2023-04-02T13:46:52;94730.00;;;16.53;38.68
12624;BME280;6377;42.836;23.998;2023-04-02T13:49:20;94722.25;;;16.80;38.86
12624;BME280;6377;42.836;23.998;2023-04-02T13:51:50;94740.53;;;17.50;37.21
12624;BME280;6377;42.836;23.998;2023-04-02T13:54:23;94740.19;;;18.13;36.16
12624;BME280;6377;42.836;23.998;2023-04-02T13:56:53;94686.69;;;17.74;35.43
12624;BME280;6377;42.836;23.998;2023-04-02T13:59:21;94690.69;;;18.15;34.71
12624;BME280;6377;42.836;23.998;2023-04-02T14:01:50;94675.50;;;18.91;32.73
12624;BME280;6377;42.836;23.998;2023-04-02T14:04:22;94730.78;;;19.92;31.53
12624;BME280;6377;42.836;23.998;2023-04-02T14:07:16;94710.44;;;20.01;32.38
12624;BME280;6377;42.836;23.998;2023-04-02T14:09:59;94726.44;;;19.49;29.86
12624;BME280;6377;42.836;23.998;2023-04-02T14:12:38;94735.81;;;19.84;30.47
12624;BME280;6377;42.836;23.998;2023-04-02T14:18:20;94676.97;;;20.19;29.49
12624;BME280;6377;42.836;23.998;2023-04-02T14:20:59;94744.97;;;20.92;30.07
12624;BME280;6377;42.836;23.998;2023-04-02T14:23:43;94609.72;;;19.84;29.04
12624;BME280;6377;42.836;23.998;2023-04-02T14:26:18;94756.13;;;19.70;30.06
12624;BME280;6377;42.836;23.998;2023-04-02T14:28:55;94626.59;;;18.74;31.39
12624;BME280;6377;42.836;23.998;2023-04-02T14:31:29;94756.66;;;19.72;30.59
12624;BME280;6377;42.836;23.998;2023-04-02T14:34:04;94725.00;;;20.16;30.95
12624;BME280;6377;42.836;23.998;2023-04-02T14:36:42;94564.03;;;19.32;29.95
12624;BME280;6377;42.836;23.998;2023-04-02T14:39:20;94602.22;;;19.07;29.79
12624;BME280;6377;42.836;23.998;2023-04-02T14:41:57;94721.78;;;19.72;31.03
12624;BME280;6377;42.836;23.998;2023-04-02T14:44:29;94660.09;;;18.76;31.33
12624;BME280;6377;42.836;23.998;2023-04-02T14:47:06;94731.47;;;18.87;30.81
12624;BME280;6377;42.836;23.998;2023-04-02T14:49:36;94653.78;;;18.39;30.85
12624;BME280;6377;42.836;23.998;2023-04-02T14:52:10;94732.06;;;18.94;30.42
12624;BME280;6377;42.836;23.998;2023-04-02T14:54:39;94731.56;;;18.97;30.29
12624;BME280;6377;42.836;23.998;2023-04-02T14:57:18;94644.38;;;18.36;30.48
12624;BME280;6377;42.836;23.998;2023-04-02T14:59:53;94729.00;;;18.81;30.15
12624;BME280;6377;42.836;23.998;2023-04-02T15:02:33;94729.72;;;18.76;29.47
12624;BME280;6377;42.836;23.998;2023-04-02T15:05:09;94737.88;;;18.86;30.55
12624;BME280;6377;42.836;23.998;2023-04-02T15:07:44;94664.22;;;18.14;27.98
12624;BME280;6377;42.836;23.998;2023-04-02T15:10:21;94554.19;;;17.45;27.22
12624;BME280;6377;42.836;23.998;2023-04-02T15:12:52;94565.41;;;17.47;28.37
12624;BME280;6377;42.836;23.998;2023-04-02T15:15:30;94575.03;;;17.65;28.62
12624;BME280;6377;42.836;23.998;2023-04-02T15:18:00;94683.59;;;18.69;28.74
12624;BME280;6377;42.836;23.998;2023-04-02T15:20:35;94667.03;;;18.72;28.18
12624;BME280;6377;42.836;23.998;2023-04-02T15:23:08;94768.78;;;19.21;28.26
12624;BME280;6377;42.836;23.998;2023-04-02T15:25:42;94605.28;;;18.35;27.97
12624;BME280;6377;42.836;23.998;2023-04-02T15:28:20;94728.00;;;19.14;28.23
12624;BME280;6377;42.836;23.998;2023-04-02T15:30:53;94677.31;;;19.12;27.81
12624;BME280;6377;42.836;23.998;2023-04-02T15:33:41;94699.59;;;19.44;28.07
12624;BME280;6377;42.836;23.998;2023-04-02T15:39:15;94746.09;;;19.97;30.98
12624;BME280;6377;42.836;23.998;2023-04-02T15:41:54;94637.88;;;19.08;31.74
12624;BME280;6377;42.836;23.998;2023-04-02T15:44:29;94745.28;;;19.28;32.63
12624;BME280;6377;42.836;23.998;2023-04-02T15:47:04;94604.09;;;18.48;32.90
12624;BME280;6377;42.836;23.998;2023-04-02T15:49:40;94750.44;;;19.08;33.47
12624;BME280;6377;42.836;23.998;2023-04-02T15:52:14;94643.06;;;17.74;34.22
12624;BME280;6377;42.836;23.998;2023-04-02T15:55:01;94771.75;;;18.11;34.40
12624;BME280;6377;42.836;23.998;2023-04-02T15:57:48;94682.09;;;17.36;33.92
12624;BME280;6377;42.836;23.998;2023-04-02T16:00:25;94782.31;;;17.67;35.91
12624;BME280;6377;42.836;23.998;2023-04-02T16:03:39;94779.03;;;17.49;35.94
12624;BME280;6377;42.836;23.998;2023-04-02T16:06:24;94638.50;;;16.41;36.13
12624;BME280;6377;42.836;23.998;2023-04-02T16:09:04;94797.63;;;17.27;36.66
12624;BME280;6377;42.836;23.998;2023-04-02T16:11:33;94772.53;;;17.11;36.81
12624;BME280;6377;42.836;23.998;2023-04-02T16:14:14;94784.00;;;17.12;37.90
12624;BME280;6377;42.836;23.998;2023-04-02T16:16:49;94785.81;;;17.23;38.18
12624;BME280;6377;42.836;23.998;2023-04-02T16:19:24;94604.91;;;16.00;37.91
12624;BME280;6377;42.836;23.998;2023-04-02T16:21:57;94796.03;;;16.98;38.89
12624;BME280;6377;42.836;23.998;2023-04-02T16:24:27;94808.00;;;16.95;39.51
12624;BME280;6377;42.836;23.998;2023-04-02T16:26:58;94766.81;;;16.63;39.66
12624;BME280;6377;42.836;23.998;2023-04-02T16:29:57;94810.47;;;16.85;39.78
12624;BME280;6377;42.836;23.998;2023-04-02T16:32:49;94793.06;;;16.54;40.75
12624;BME280;6377;42.836;23.998;2023-04-02T16:35:24;94815.31;;;16.48;40.75
12624;BME280;6377;42.836;23.998;2023-04-02T16:37:56;94794.47;;;16.22;40.95
12624;BME280;6377;42.836;23.998;2023-04-02T16:40:32;94823.44;;;16.42;41.82
12624;BME280;6377;42.836;23.998;2023-04-02T16:43:10;94826.84;;;16.37;42.01
12624;BME280;6377;42.836;23.998;2023-04-02T16:45:48;94826.13;;;16.30;42.09
12624;BME280;6377;42.836;23.998;2023-04-02T16:48:26;94840.19;;;16.14;42.01
12624;BME280;6377;42.836;23.998;2023-04-02T16:51:03;94837.19;;;15.99;42.47
12624;BME280;6377;42.836;23.998;2023-04-02T16:53:41;94835.19;;;15.83;43.96
12624;BME280;6377;42.836;23.998;2023-04-02T16:56:31;94857.09;;;15.73;44.61
12624;BME280;6377;42.836;23.998;2023-04-02T16:59:10;94845.72;;;15.66;46.06
12624;BME280;6377;42.836;23.998;2023-04-02T17:01:48;94817.44;;;15.24;47.01
12624;BME280;6377;42.836;23.998;2023-04-02T17:04:47;94844.41;;;15.15;46.29
12624;BME280;6377;42.836;23.998;2023-04-02T17:07:27;94836.50;;;14.79;46.79
12624;BME280;6377;42.836;23.998;2023-04-02T17:10:13;94834.44;;;14.63;47.05
12624;BME280;6377;42.836;23.998;2023-04-02T17:12:46;94860.91;;;14.76;48.43
12624;BME280;6377;42.836;23.998;2023-04-02T17:15:17;94821.28;;;14.32;48.26
12624;BME280;6377;42.836;23.998;2023-04-02T17:17:45;94877.31;;;14.55;49.30
12624;BME280;6377;42.836;23.998;2023-04-02T17:20:17;94829.31;;;14.07;49.35
12624;BME280;6377;42.836;23.998;2023-04-02T17:22:46;94893.31;;;14.30;49.32
12624;BME280;6377;42.836;23.998;2023-04-02T17:25:17;94882.72;;;14.24;49.61
12624;BME280;6377;42.836;23.998;2023-04-02T17:27:49;94914.28;;;14.20;50.82
12624;BME280;6377;42.836;23.998;2023-04-02T17:30:37;94878.47;;;13.98;51.36
12624;BME280;6377;42.836;23.998;2023-04-02T17:33:11;94792.63;;;12.92;53.56
12624;BME280;6377;42.836;23.998;2023-04-02T17:35:49;94730.03;;;12.53;56.10
12624;BME280;6377;42.836;23.998;2023-04-02T17:38:26;94883.00;;;13.04;57.45
12624;BME280;6377;42.836;23.998;2023-04-02T17:41:00;94754.63;;;12.29;57.66
12624;BME280;6377;42.836;23.998;2023-04-02T17:43:35;94842.16;;;12.67;57.01
12624;BME280;6377;42.836;23.998;2023-04-02T17:46:14;94898.63;;;12.80;58.33
12624;BME280;6377;42.836;23.998;2023-04-02T17:48:45;94938.81;;;12.90;59.29
12624;BME280;6377;42.836;23.998;2023-04-02T17:51:19;94925.25;;;12.48;61.42
12624;BME280;6377;42.836;23.998;2023-04-02T17:54:08;94951.94;;;12.66;61.20
12624;BME280;6377;42.836;23.998;2023-04-02T17:56:53;94959.53;;;12.43;62.72
12624;BME280;6377;42.836;23.998;2023-04-02T17:59:34;94960.16;;;12.45;63.13
12624;BME280;6377;42.836;23.998;2023-04-02T18:02:18;94868.50;;;11.78;63.50
12624;BME280;6377;42.836;23.998;2023-04-02T18:05:03;94780.03;;;10.81;64.29
12624;BME280;6377;42.836;23.998;2023-04-02T18:07:42;94928.16;;;11.67;65.42
12624;BME280;6377;42.836;23.998;2023-04-02T18:10:20;94873.13;;;11.23;65.26
12624;BME280;6377;42.836;23.998;2023-04-02T18:12:54;94979.97;;;12.03;65.13
12624;BME280;6377;42.836;23.998;2023-04-02T18:15:52;94925.88;;;11.32;66.77
12624;BME280;6377;42.836;23.998;2023-04-02T18:18:39;94835.50;;;10.48;68.83
12624;BME280;6377;42.836;23.998;2023-04-02T18:21:14;94995.19;;;11.61;69.42
12624;BME280;6377;42.836;23.998;2023-04-02T18:23:57;94954.34;;;11.16;70.83
12624;BME280;6377;42.836;23.998;2023-04-02T18:26:35;94987.03;;;11.56;71.99
12624;BME280;6377;42.836;23.998;2023-04-02T18:29:14;95045.94;;;11.65;71.74
12624;BME280;6377;42.836;23.998;2023-04-02T18:31:53;94974.75;;;11.29;71.91
12624;BME280;6377;42.836;23.998;2023-04-02T18:34:43;94988.63;;;11.38;70.45
12624;BME280;6377;42.836;23.998;2023-04-02T18:37:26;95006.19;;;11.58;72.60
12624;BME280;6377;42.836;23.998;2023-04-02T18:40:16;94949.44;;;11.13;71.92
